sensor_id;sensor_type;location;lat;lon;timestamp;P1;durP1;ratioP1;P2;durP2;ratioP2
34144;SDS011;69555;53.014;8.886;2023-09-30T00:01:02;20.23;;;5.55;;
34144;SDS011;69555;53.014;8.886;2023-09-30T00:03:27;20.08;;;5.32;;
34144;SDS011;69555;53.014;8.886;2023-09-30T00:05:53;20.05;;;4.93;;
34144;SDS011;69555;53.014;8.886;2023-09-30T00:08:19;20.77;;;5.38;;
34144;SDS011;69555;53.014;8.886;2023-09-30T00:10:44;18.58;;;5.07;;
34144;SDS011;69555;53.014;8.886;2023-09-30T00:13:10;19.20;;;5.10;;
34144;SDS011;69555;53.014;8.886;2023-09-30T00:15:36;16.75;;;5.55;;
34144;SDS011;69555;53.014;8.886;2023-09-30T00:18:01;25.45;;;4.97;;
34144;SDS011;69555;53.014;8.886;2023-09-30T00:20:27;16.17;;;5.45;;
34144;SDS011;69555;53.014;8.886;2023-09-30T00:22:53;19.58;;;5.10;;
34144;SDS011;69555;53.014;8.886;2023-09-30T00:25:19;16.33;;;5.30;;
34144;SDS011;69555;53.014;8.886;2023-09-30T00:27:46;21.95;;;5.57;;
34144;SDS011;69555;53.014;8.886;2023-09-30T00:30:11;24.08;;;6.15;;
34144;SDS011;69555;53.014;8.886;2023-09-30T00:32:37;22.63;;;6.25;;
34144;SDS011;69555;53.014;8.886;2023-09-30T00:35:04;17.65;;;5.97;;
34144;SDS011;69555;53.014;8.886;2023-09-30T00:37:30;22.30;;;4.97;;
34144;SDS011;69555;53.014;8.886;2023-09-30T00:39:55;25.00;;;5.95;;
34144;SDS011;69555;53.014;8.886;2023-09-30T00:42:21;22.30;;;5.90;;
34144;SDS011;69555;53.014;8.886;2023-09-30T00:44:46;17.83;;;6.10;;
34144;SDS011;69555;53.014;8.886;2023-09-30T00:47:13;24.63;;;6.07;;
34144;SDS011;69555;53.014;8.886;2023-09-30T00:49:40;17.85;;;4.85;;
34144;SDS011;69555;53.014;8.886;2023-09-30T00:52:08;23.48;;;6.28;;
34144;SDS011;69555;53.014;8.886;2023-09-30T00:54:34;29.90;;;5.88;;
34144;SDS011;69555;53.014;8.886;2023-09-30T00:57:00;22.73;;;5.80;;
34144;SDS011;69555;53.014;8.886;2023-09-30T00:59:26;20.33;;;5.25;;
34144;SDS011;69555;53.014;8.886;2023-09-30T01:01:54;22.88;;;6.18;;
34144;SDS011;69555;53.014;8.886;2023-09-30T01:04:22;23.48;;;5.32;;
34144;SDS011;69555;53.014;8.886;2023-09-30T01:06:48;21.00;;;7.07;;
34144;SDS011;69555;53.014;8.886;2023-09-30T01:09:13;15.93;;;5.90;;
34144;SDS011;69555;53.014;8.886;2023-09-30T01:11:39;29.00;;;7.47;;
34144;SDS011;69555;53.014;8.886;2023-09-30T01:14:05;28.65;;;6.78;;
34144;SDS011;69555;53.014;8.886;2023-09-30T01:16:49;15.10;;;5.38;;
34144;SDS011;69555;53.014;8.886;2023-09-30T01:19:14;23.65;;;6.47;;
34144;SDS011;69555;53.014;8.886;2023-09-30T01:21:39;26.38;;;6.80;;
34144;SDS011;69555;53.014;8.886;2023-09-30T01:24:06;20.45;;;6.38;;
34144;SDS011;69555;53.014;8.886;2023-09-30T01:26:32;24.50;;;6.22;;
34144;SDS011;69555;53.014;8.886;2023-09-30T01:28:58;22.88;;;6.72;;
34144;SDS011;69555;53.014;8.886;2023-09-30T01:31:23;21.35;;;6.70;;
34144;SDS011;69555;53.014;8.886;2023-09-30T01:33:49;19.42;;;6.35;;
34144;SDS011;69555;53.014;8.886;2023-09-30T01:36:14;27.65;;;6.97;;
34144;SDS011;69555;53.014;8.886;2023-09-30T01:38:42;20.42;;;5.07;;
34144;SDS011;69555;53.014;8.886;2023-09-30T01:41:07;23.10;;;6.65;;
34144;SDS011;69555;53.014;8.886;2023-09-30T01:43:33;22.35;;;6.35;;
34144;SDS011;69555;53.014;8.886;2023-09-30T01:46:00;25.08;;;6.18;;
34144;SDS011;69555;53.014;8.886;2023-09-30T01:48:26;31.38;;;7.03;;
34144;SDS011;69555;53.014;8.886;2023-09-30T01:50:51;26.02;;;7.63;;
34144;SDS011;69555;53.014;8.886;2023-09-30T01:53:16;20.20;;;5.85;;
34144;SDS011;69555;53.014;8.886;2023-09-30T01:55:42;19.52;;;5.60;;
34144;SDS011;69555;53.014;8.886;2023-09-30T01:58:09;31.00;;;7.65;;
34144;SDS011;69555;53.014;8.886;2023-09-30T02:00:36;26.50;;;7.57;;
34144;SDS011;69555;53.014;8.886;2023-09-30T02:03:01;22.50;;;7.10;;
34144;SDS011;69555;53.014;8.886;2023-09-30T02:05:27;21.27;;;6.15;;
34144;SDS011;69555;53.014;8.886;2023-09-30T02:07:53;24.00;;;5.80;;
34144;SDS011;69555;53.014;8.886;2023-09-30T02:10:18;16.67;;;5.50;;
34144;SDS011;69555;53.014;8.886;2023-09-30T02:12:44;20.88;;;6.32;;
34144;SDS011;69555;53.014;8.886;2023-09-30T02:15:10;17.15;;;6.05;;
34144;SDS011;69555;53.014;8.886;2023-09-30T02:17:36;38.30;;;6.40;;
34144;SDS011;69555;53.014;8.886;2023-09-30T02:20:02;24.15;;;7.63;;
34144;SDS011;69555;53.014;8.886;2023-09-30T02:22:32;26.27;;;6.90;;
34144;SDS011;69555;53.014;8.886;2023-09-30T02:24:58;25.73;;;6.00;;
34144;SDS011;69555;53.014;8.886;2023-09-30T02:27:23;26.25;;;6.00;;
34144;SDS011;69555;53.014;8.886;2023-09-30T02:29:49;22.33;;;6.03;;
34144;SDS011;69555;53.014;8.886;2023-09-30T02:32:14;23.10;;;6.00;;
34144;SDS011;69555;53.014;8.886;2023-09-30T02:34:39;19.73;;;5.63;;
34144;SDS011;69555;53.014;8.886;2023-09-30T02:37:05;23.25;;;6.45;;
34144;SDS011;69555;53.014;8.886;2023-09-30T02:39:30;18.02;;;5.25;;
34144;SDS011;69555;53.014;8.886;2023-09-30T02:41:56;20.70;;;5.78;;
34144;SDS011;69555;53.014;8.886;2023-09-30T02:44:21;22.73;;;6.68;;
34144;SDS011;69555;53.014;8.886;2023-09-30T02:46:47;21.25;;;6.63;;
34144;SDS011;69555;53.014;8.886;2023-09-30T02:49:12;20.83;;;5.40;;
34144;SDS011;69555;53.014;8.886;2023-09-30T02:51:38;25.77;;;6.25;;
34144;SDS011;69555;53.014;8.886;2023-09-30T02:54:03;26.80;;;6.35;;
34144;SDS011;69555;53.014;8.886;2023-09-30T02:56:29;24.55;;;6.45;;
34144;SDS011;69555;53.014;8.886;2023-09-30T02:58:55;27.52;;;6.40;;
34144;SDS011;69555;53.014;8.886;2023-09-30T03:01:21;28.35;;;7.25;;
34144;SDS011;69555;53.014;8.886;2023-09-30T03:03:46;20.20;;;5.65;;
34144;SDS011;69555;53.014;8.886;2023-09-30T03:06:12;23.98;;;6.13;;
34144;SDS011;69555;53.014;8.886;2023-09-30T03:08:37;25.70;;;6.30;;
34144;SDS011;69555;53.014;8.886;2023-09-30T03:11:03;20.88;;;7.43;;
34144;SDS011;69555;53.014;8.886;2023-09-30T03:13:29;22.10;;;6.25;;
34144;SDS011;69555;53.014;8.886;2023-09-30T03:15:55;19.85;;;6.13;;
34144;SDS011;69555;53.014;8.886;2023-09-30T03:18:22;25.30;;;6.25;;
34144;SDS011;69555;53.014;8.886;2023-09-30T03:20:51;19.98;;;5.95;;
34144;SDS011;69555;53.014;8.886;2023-09-30T03:23:25;23.13;;;6.25;;
34144;SDS011;69555;53.014;8.886;2023-09-30T03:25:56;21.13;;;6.82;;
34144;SDS011;69555;53.014;8.886;2023-09-30T03:28:22;31.63;;;7.40;;
34144;SDS011;69555;53.014;8.886;2023-09-30T03:30:48;29.42;;;7.40;;
34144;SDS011;69555;53.014;8.886;2023-09-30T03:33:13;18.67;;;6.30;;
34144;SDS011;69555;53.014;8.886;2023-09-30T03:35:39;18.70;;;6.10;;
34144;SDS011;69555;53.014;8.886;2023-09-30T03:38:04;18.55;;;6.78;;
34144;SDS011;69555;53.014;8.886;2023-09-30T03:40:29;23.92;;;6.00;;
34144;SDS011;69555;53.014;8.886;2023-09-30T03:42:59;19.85;;;5.50;;
34144;SDS011;69555;53.014;8.886;2023-09-30T03:45:24;25.02;;;6.85;;
34144;SDS011;69555;53.014;8.886;2023-09-30T03:47:50;22.17;;;5.07;;
34144;SDS011;69555;53.014;8.886;2023-09-30T03:50:16;31.95;;;7.57;;
34144;SDS011;69555;53.014;8.886;2023-09-30T03:52:42;25.75;;;6.15;;
34144;SDS011;69555;53.014;8.886;2023-09-30T03:55:12;24.50;;;7.10;;
34144;SDS011;69555;53.014;8.886;2023-09-30T03:57:40;19.08;;;6.25;;
34144;SDS011;69555;53.014;8.886;2023-09-30T04:00:05;27.75;;;7.70;;
34144;SDS011;69555;53.014;8.886;2023-09-30T04:02:32;18.70;;;5.45;;
34144;SDS011;69555;53.014;8.886;2023-09-30T04:04:58;14.73;;;6.28;;
34144;SDS011;69555;53.014;8.886;2023-09-30T04:07:24;17.88;;;5.43;;
34144;SDS011;69555;53.014;8.886;2023-09-30T04:09:53;20.38;;;5.78;;
34144;SDS011;69555;53.014;8.886;2023-09-30T04:12:20;20.55;;;5.63;;
34144;SDS011;69555;53.014;8.886;2023-09-30T04:14:45;17.52;;;5.18;;
34144;SDS011;69555;53.014;8.886;2023-09-30T04:17:11;23.48;;;6.07;;
34144;SDS011;69555;53.014;8.886;2023-09-30T04:19:36;17.95;;;5.85;;
34144;SDS011;69555;53.014;8.886;2023-09-30T04:22:02;29.85;;;6.03;;
34144;SDS011;69555;53.014;8.886;2023-09-30T04:24:27;24.08;;;6.28;;
34144;SDS011;69555;53.014;8.886;2023-09-30T04:26:54;37.58;;;6.50;;
34144;SDS011;69555;53.014;8.886;2023-09-30T04:29:22;22.75;;;6.85;;
34144;SDS011;69555;53.014;8.886;2023-09-30T04:31:48;25.67;;;6.80;;
34144;SDS011;69555;53.014;8.886;2023-09-30T04:34:14;25.77;;;6.25;;
34144;SDS011;69555;53.014;8.886;2023-09-30T04:36:40;17.27;;;5.35;;
34144;SDS011;69555;53.014;8.886;2023-09-30T04:39:05;25.35;;;6.57;;
34144;SDS011;69555;53.014;8.886;2023-09-30T04:41:31;19.67;;;6.22;;
34144;SDS011;69555;53.014;8.886;2023-09-30T04:43:56;25.73;;;6.35;;
34144;SDS011;69555;53.014;8.886;2023-09-30T04:46:22;20.65;;;6.75;;
34144;SDS011;69555;53.014;8.886;2023-09-30T04:48:48;25.23;;;5.57;;
34144;SDS011;69555;53.014;8.886;2023-09-30T04:51:17;15.20;;;5.28;;
34144;SDS011;69555;53.014;8.886;2023-09-30T04:53:43;21.02;;;5.45;;
34144;SDS011;69555;53.014;8.886;2023-09-30T04:56:11;20.92;;;7.13;;
34144;SDS011;69555;53.014;8.886;2023-09-30T04:58:37;28.55;;;6.60;;
34144;SDS011;69555;53.014;8.886;2023-09-30T05:01:03;22.92;;;6.03;;
34144;SDS011;69555;53.014;8.886;2023-09-30T05:03:28;24.33;;;6.65;;
34144;SDS011;69555;53.014;8.886;2023-09-30T05:05:53;31.73;;;8.32;;
34144;SDS011;69555;53.014;8.886;2023-09-30T05:08:23;20.02;;;6.15;;
34144;SDS011;69555;53.014;8.886;2023-09-30T05:10:49;20.48;;;5.63;;
34144;SDS011;69555;53.014;8.886;2023-09-30T05:13:15;27.63;;;5.70;;
34144;SDS011;69555;53.014;8.886;2023-09-30T05:15:40;23.85;;;5.47;;
34144;SDS011;69555;53.014;8.886;2023-09-30T05:18:06;17.42;;;6.40;;
34144;SDS011;69555;53.014;8.886;2023-09-30T05:20:34;30.23;;;5.80;;
34144;SDS011;69555;53.014;8.886;2023-09-30T05:23:01;15.65;;;5.80;;
34144;SDS011;69555;53.014;8.886;2023-09-30T05:25:27;22.75;;;5.30;;
34144;SDS011;69555;53.014;8.886;2023-09-30T05:27:53;24.08;;;6.32;;
34144;SDS011;69555;53.014;8.886;2023-09-30T05:30:19;20.25;;;5.32;;
34144;SDS011;69555;53.014;8.886;2023-09-30T05:32:45;21.73;;;6.20;;
34144;SDS011;69555;53.014;8.886;2023-09-30T05:35:11;18.00;;;5.28;;
34144;SDS011;69555;53.014;8.886;2023-09-30T05:37:42;25.23;;;6.20;;
34144;SDS011;69555;53.014;8.886;2023-09-30T05:40:08;28.83;;;6.72;;
34144;SDS011;69555;53.014;8.886;2023-09-30T05:42:47;20.90;;;5.70;;
34144;SDS011;69555;53.014;8.886;2023-09-30T05:45:13;17.23;;;5.85;;
34144;SDS011;69555;53.014;8.886;2023-09-30T05:47:39;20.35;;;5.60;;
34144;SDS011;69555;53.014;8.886;2023-09-30T05:50:06;23.08;;;6.03;;
34144;SDS011;69555;53.014;8.886;2023-09-30T05:52:32;18.63;;;5.93;;
34144;SDS011;69555;53.014;8.886;2023-09-30T05:54:58;20.50;;;5.50;;
34144;SDS011;69555;53.014;8.886;2023-09-30T05:57:25;23.15;;;6.70;;
34144;SDS011;69555;53.014;8.886;2023-09-30T05:59:51;20.20;;;5.93;;
34144;SDS011;69555;53.014;8.886;2023-09-30T06:02:17;22.00;;;5.38;;
34144;SDS011;69555;53.014;8.886;2023-09-30T06:04:42;31.27;;;5.57;;
34144;SDS011;69555;53.014;8.886;2023-09-30T06:07:08;19.63;;;5.72;;
34144;SDS011;69555;53.014;8.886;2023-09-30T06:09:33;21.50;;;6.43;;
34144;SDS011;69555;53.014;8.886;2023-09-30T06:11:59;18.73;;;6.10;;
34144;SDS011;69555;53.014;8.886;2023-09-30T06:14:28;19.05;;;6.18;;
34144;SDS011;69555;53.014;8.886;2023-09-30T06:16:55;18.27;;;6.18;;
34144;SDS011;69555;53.014;8.886;2023-09-30T06:19:21;20.92;;;6.13;;
34144;SDS011;69555;53.014;8.886;2023-09-30T06:21:46;19.67;;;5.32;;
34144;SDS011;69555;53.014;8.886;2023-09-30T06:24:12;14.60;;;4.68;;
34144;SDS011;69555;53.014;8.886;2023-09-30T06:26:37;19.55;;;5.43;;
34144;SDS011;69555;53.014;8.886;2023-09-30T06:29:03;20.05;;;4.78;;
34144;SDS011;69555;53.014;8.886;2023-09-30T06:31:28;18.15;;;5.38;;
34144;SDS011;69555;53.014;8.886;2023-09-30T06:33:54;14.07;;;4.65;;
34144;SDS011;69555;53.014;8.886;2023-09-30T06:36:23;18.50;;;4.43;;
34144;SDS011;69555;53.014;8.886;2023-09-30T06:38:48;14.88;;;4.35;;
34144;SDS011;69555;53.014;8.886;2023-09-30T06:41:18;15.85;;;4.78;;
34144;SDS011;69555;53.014;8.886;2023-09-30T06:43:44;13.55;;;4.07;;
34144;SDS011;69555;53.014;8.886;2023-09-30T06:46:09;11.50;;;4.18;;
34144;SDS011;69555;53.014;8.886;2023-09-30T06:48:35;15.40;;;5.30;;
34144;SDS011;69555;53.014;8.886;2023-09-30T06:51:01;13.55;;;4.93;;
34144;SDS011;69555;53.014;8.886;2023-09-30T06:53:27;17.30;;;4.30;;
34144;SDS011;69555;53.014;8.886;2023-09-30T06:55:52;14.23;;;4.43;;
34144;SDS011;69555;53.014;8.886;2023-09-30T06:58:18;15.70;;;4.35;;
34144;SDS011;69555;53.014;8.886;2023-09-30T07:00:47;16.40;;;4.40;;
34144;SDS011;69555;53.014;8.886;2023-09-30T07:03:14;11.35;;;3.80;;
34144;SDS011;69555;53.014;8.886;2023-09-30T07:05:40;14.55;;;4.28;;
34144;SDS011;69555;53.014;8.886;2023-09-30T07:08:06;13.52;;;4.03;;
34144;SDS011;69555;53.014;8.886;2023-09-30T07:10:31;11.43;;;4.05;;
34144;SDS011;69555;53.014;8.886;2023-09-30T07:12:57;15.18;;;3.90;;
34144;SDS011;69555;53.014;8.886;2023-09-30T07:15:22;16.90;;;4.88;;
34144;SDS011;69555;53.014;8.886;2023-09-30T07:17:48;12.95;;;3.88;;
34144;SDS011;69555;53.014;8.886;2023-09-30T07:20:13;14.65;;;5.05;;
34144;SDS011;69555;53.014;8.886;2023-09-30T07:22:39;13.48;;;4.47;;
34144;SDS011;69555;53.014;8.886;2023-09-30T07:25:05;13.50;;;4.45;;
34144;SDS011;69555;53.014;8.886;2023-09-30T07:27:31;13.80;;;4.63;;
34144;SDS011;69555;53.014;8.886;2023-09-30T07:29:56;17.02;;;5.03;;
34144;SDS011;69555;53.014;8.886;2023-09-30T07:32:22;19.05;;;5.60;;
34144;SDS011;69555;53.014;8.886;2023-09-30T07:34:48;18.67;;;5.32;;
34144;SDS011;69555;53.014;8.886;2023-09-30T07:37:14;12.25;;;4.28;;
34144;SDS011;69555;53.014;8.886;2023-09-30T07:39:42;12.45;;;4.57;;
34144;SDS011;69555;53.014;8.886;2023-09-30T07:42:08;14.90;;;5.20;;
34144;SDS011;69555;53.014;8.886;2023-09-30T07:44:34;14.73;;;5.60;;
34144;SDS011;69555;53.014;8.886;2023-09-30T07:47:02;21.63;;;5.18;;
34144;SDS011;69555;53.014;8.886;2023-09-30T07:49:33;13.93;;;4.97;;
34144;SDS011;69555;53.014;8.886;2023-09-30T07:51:59;12.35;;;4.95;;
34144;SDS011;69555;53.014;8.886;2023-09-30T07:54:24;17.50;;;5.20;;
34144;SDS011;69555;53.014;8.886;2023-09-30T07:56:50;19.73;;;4.65;;
34144;SDS011;69555;53.014;8.886;2023-09-30T07:59:15;12.07;;;4.43;;
34144;SDS011;69555;53.014;8.886;2023-09-30T08:01:40;16.20;;;3.78;;
34144;SDS011;69555;53.014;8.886;2023-09-30T08:04:06;15.38;;;5.63;;
34144;SDS011;69555;53.014;8.886;2023-09-30T08:06:32;10.73;;;4.50;;
34144;SDS011;69555;53.014;8.886;2023-09-30T08:08:58;16.05;;;4.78;;
34144;SDS011;69555;53.014;8.886;2023-09-30T08:11:23;10.93;;;3.92;;
34144;SDS011;69555;53.014;8.886;2023-09-30T08:13:52;15.47;;;4.40;;
34144;SDS011;69555;53.014;8.886;2023-09-30T08:16:18;17.90;;;5.55;;
34144;SDS011;69555;53.014;8.886;2023-09-30T08:18:44;19.17;;;4.25;;
34144;SDS011;69555;53.014;8.886;2023-09-30T08:21:09;12.63;;;4.82;;
34144;SDS011;69555;53.014;8.886;2023-09-30T08:23:36;13.52;;;4.32;;
34144;SDS011;69555;53.014;8.886;2023-09-30T08:26:01;16.58;;;4.32;;
34144;SDS011;69555;53.014;8.886;2023-09-30T08:28:28;20.50;;;4.10;;
34144;SDS011;69555;53.014;8.886;2023-09-30T08:30:53;12.32;;;3.78;;
34144;SDS011;69555;53.014;8.886;2023-09-30T08:33:23;15.02;;;3.85;;
34144;SDS011;69555;53.014;8.886;2023-09-30T08:35:49;16.95;;;4.10;;
34144;SDS011;69555;53.014;8.886;2023-09-30T08:38:15;19.38;;;5.25;;
34144;SDS011;69555;53.014;8.886;2023-09-30T08:40:40;13.88;;;4.25;;
34144;SDS011;69555;53.014;8.886;2023-09-30T08:43:06;14.25;;;3.88;;
34144;SDS011;69555;53.014;8.886;2023-09-30T08:45:36;12.93;;;3.92;;
34144;SDS011;69555;53.014;8.886;2023-09-30T08:48:06;10.85;;;3.63;;
34144;SDS011;69555;53.014;8.886;2023-09-30T08:50:32;16.63;;;4.00;;
34144;SDS011;69555;53.014;8.886;2023-09-30T08:52:59;16.52;;;4.57;;
34144;SDS011;69555;53.014;8.886;2023-09-30T08:55:26;17.70;;;4.57;;
34144;SDS011;69555;53.014;8.886;2023-09-30T08:57:53;14.40;;;3.83;;
34144;SDS011;69555;53.014;8.886;2023-09-30T09:00:20;19.80;;;5.03;;
34144;SDS011;69555;53.014;8.886;2023-09-30T09:02:46;12.90;;;3.78;;
34144;SDS011;69555;53.014;8.886;2023-09-30T09:05:11;14.85;;;4.30;;
34144;SDS011;69555;53.014;8.886;2023-09-30T09:07:37;15.93;;;4.38;;
34144;SDS011;69555;53.014;8.886;2023-09-30T09:10:09;13.70;;;3.55;;
34144;SDS011;69555;53.014;8.886;2023-09-30T09:12:37;19.23;;;3.63;;
34144;SDS011;69555;53.014;8.886;2023-09-30T09:15:04;13.43;;;3.85;;
34144;SDS011;69555;53.014;8.886;2023-09-30T09:17:43;13.57;;;3.95;;
34144;SDS011;69555;53.014;8.886;2023-09-30T09:20:10;16.00;;;3.65;;
34144;SDS011;69555;53.014;8.886;2023-09-30T09:22:41;11.40;;;3.97;;
34144;SDS011;69555;53.014;8.886;2023-09-30T09:25:08;18.58;;;4.18;;
34144;SDS011;69555;53.014;8.886;2023-09-30T09:27:35;19.48;;;4.30;;
34144;SDS011;69555;53.014;8.886;2023-09-30T09:30:15;13.90;;;3.90;;
34144;SDS011;69555;53.014;8.886;2023-09-30T09:33:01;11.93;;;3.60;;
34144;SDS011;69555;53.014;8.886;2023-09-30T09:35:29;15.98;;;4.40;;
34144;SDS011;69555;53.014;8.886;2023-09-30T09:38:04;10.27;;;3.42;;
34144;SDS011;69555;53.014;8.886;2023-09-30T09:40:33;18.83;;;4.22;;
34144;SDS011;69555;53.014;8.886;2023-09-30T09:43:02;9.48;;;3.65;;
34144;SDS011;69555;53.014;8.886;2023-09-30T09:45:37;15.52;;;3.53;;
34144;SDS011;69555;53.014;8.886;2023-09-30T09:48:04;13.50;;;3.17;;
34144;SDS011;69555;53.014;8.886;2023-09-30T09:50:30;12.98;;;3.10;;
34144;SDS011;69555;53.014;8.886;2023-09-30T09:53:01;12.85;;;3.58;;
34144;SDS011;69555;53.014;8.886;2023-09-30T09:55:30;12.57;;;2.67;;
34144;SDS011;69555;53.014;8.886;2023-09-30T09:57:57;12.68;;;3.10;;
34144;SDS011;69555;53.014;8.886;2023-09-30T10:02:56;12.35;;;2.88;;
34144;SDS011;69555;53.014;8.886;2023-09-30T10:05:23;13.05;;;3.10;;
34144;SDS011;69555;53.014;8.886;2023-09-30T10:08:00;12.05;;;2.72;;
34144;SDS011;69555;53.014;8.886;2023-09-30T10:10:34;14.18;;;3.17;;
34144;SDS011;69555;53.014;8.886;2023-09-30T10:13:05;14.23;;;3.40;;
34144;SDS011;69555;53.014;8.886;2023-09-30T10:15:37;9.60;;;2.42;;
34144;SDS011;69555;53.014;8.886;2023-09-30T10:18:11;10.93;;;3.15;;
34144;SDS011;69555;53.014;8.886;2023-09-30T10:20:39;8.93;;;2.90;;
34144;SDS011;69555;53.014;8.886;2023-09-30T10:23:22;8.93;;;2.67;;
34144;SDS011;69555;53.014;8.886;2023-09-30T10:25:50;8.50;;;1.90;;
34144;SDS011;69555;53.014;8.886;2023-09-30T10:28:42;13.50;;;3.25;;
34144;SDS011;69555;53.014;8.886;2023-09-30T10:31:18;9.77;;;2.53;;
34144;SDS011;69555;53.014;8.886;2023-09-30T10:36:32;13.90;;;3.13;;
34144;SDS011;69555;53.014;8.886;2023-09-30T10:39:00;8.80;;;2.30;;
34144;SDS011;69555;53.014;8.886;2023-09-30T10:46:52;12.07;;;2.65;;
34144;SDS011;69555;53.014;8.886;2023-09-30T10:51:54;9.77;;;2.35;;
34144;SDS011;69555;53.014;8.886;2023-09-30T10:54:28;11.15;;;3.38;;
34144;SDS011;69555;53.014;8.886;2023-09-30T10:56:56;7.35;;;2.25;;
34144;SDS011;69555;53.014;8.886;2023-09-30T10:59:24;9.45;;;1.90;;
34144;SDS011;69555;53.014;8.886;2023-09-30T11:01:52;8.02;;;3.30;;
34144;SDS011;69555;53.014;8.886;2023-09-30T11:04:19;13.63;;;2.45;;
34144;SDS011;69555;53.014;8.886;2023-09-30T11:06:46;8.88;;;2.40;;
34144;SDS011;69555;53.014;8.886;2023-09-30T11:09:20;11.18;;;2.80;;
34144;SDS011;69555;53.014;8.886;2023-09-30T11:11:48;8.73;;;2.20;;
34144;SDS011;69555;53.014;8.886;2023-09-30T11:14:22;10.27;;;2.88;;
34144;SDS011;69555;53.014;8.886;2023-09-30T11:16:50;11.15;;;2.35;;
34144;SDS011;69555;53.014;8.886;2023-09-30T11:19:17;15.77;;;2.92;;
34144;SDS011;69555;53.014;8.886;2023-09-30T11:21:46;11.60;;;3.03;;
34144;SDS011;69555;53.014;8.886;2023-09-30T11:24:16;10.55;;;2.40;;
34144;SDS011;69555;53.014;8.886;2023-09-30T11:26:42;14.88;;;2.88;;
34144;SDS011;69555;53.014;8.886;2023-09-30T11:29:12;7.25;;;2.17;;
34144;SDS011;69555;53.014;8.886;2023-09-30T11:31:44;12.63;;;2.58;;
34144;SDS011;69555;53.014;8.886;2023-09-30T11:34:13;10.80;;;2.28;;
34144;SDS011;69555;53.014;8.886;2023-09-30T11:36:41;6.75;;;1.58;;
34144;SDS011;69555;53.014;8.886;2023-09-30T11:41:51;9.48;;;2.30;;
34144;SDS011;69555;53.014;8.886;2023-09-30T11:44:17;4.82;;;2.25;;
34144;SDS011;69555;53.014;8.886;2023-09-30T11:46:47;11.20;;;2.13;;
34144;SDS011;69555;53.014;8.886;2023-09-30T11:49:52;8.05;;;2.08;;
34144;SDS011;69555;53.014;8.886;2023-09-30T11:52:13;12.52;;;2.70;;
34144;SDS011;69555;53.014;8.886;2023-09-30T11:54:43;6.38;;;2.03;;
34144;SDS011;69555;53.014;8.886;2023-09-30T11:57:10;7.80;;;2.60;;
34144;SDS011;69555;53.014;8.886;2023-09-30T11:59:37;16.17;;;3.42;;
34144;SDS011;69555;53.014;8.886;2023-09-30T12:02:04;4.88;;;1.88;;
34144;SDS011;69555;53.014;8.886;2023-09-30T12:04:36;9.80;;;2.55;;
34144;SDS011;69555;53.014;8.886;2023-09-30T12:07:04;9.05;;;2.22;;
34144;SDS011;69555;53.014;8.886;2023-09-30T12:09:33;6.27;;;1.90;;
34144;SDS011;69555;53.014;8.886;2023-09-30T12:12:02;7.43;;;1.73;;
34144;SDS011;69555;53.014;8.886;2023-09-30T12:14:28;7.25;;;2.10;;
34144;SDS011;69555;53.014;8.886;2023-09-30T12:16:55;8.80;;;2.17;;
34144;SDS011;69555;53.014;8.886;2023-09-30T12:19:21;7.50;;;1.70;;
34144;SDS011;69555;53.014;8.886;2023-09-30T12:21:46;6.55;;;1.92;;
34144;SDS011;69555;53.014;8.886;2023-09-30T12:24:16;16.40;;;2.63;;
34144;SDS011;69555;53.014;8.886;2023-09-30T12:26:44;8.43;;;2.67;;
34144;SDS011;69555;53.014;8.886;2023-09-30T12:29:17;14.70;;;2.42;;
34144;SDS011;69555;53.014;8.886;2023-09-30T12:31:46;15.30;;;2.20;;
34144;SDS011;69555;53.014;8.886;2023-09-30T12:34:16;8.30;;;2.33;;
34144;SDS011;69555;53.014;8.886;2023-09-30T12:36:42;8.40;;;1.60;;
34144;SDS011;69555;53.014;8.886;2023-09-30T12:39:08;10.65;;;2.97;;
34144;SDS011;69555;53.014;8.886;2023-09-30T12:41:38;7.38;;;2.50;;
34144;SDS011;69555;53.014;8.886;2023-09-30T12:44:07;10.02;;;2.15;;
34144;SDS011;69555;53.014;8.886;2023-09-30T12:46:33;18.67;;;2.70;;
34144;SDS011;69555;53.014;8.886;2023-09-30T12:49:01;27.88;;;7.30;;
34144;SDS011;69555;53.014;8.886;2023-09-30T12:51:27;8.90;;;2.85;;
34144;SDS011;69555;53.014;8.886;2023-09-30T12:53:53;10.10;;;2.17;;
34144;SDS011;69555;53.014;8.886;2023-09-30T12:56:18;13.85;;;3.90;;
34144;SDS011;69555;53.014;8.886;2023-09-30T12:58:44;11.65;;;2.70;;
34144;SDS011;69555;53.014;8.886;2023-09-30T13:01:09;7.75;;;1.95;;
34144;SDS011;69555;53.014;8.886;2023-09-30T13:03:34;10.88;;;2.50;;
34144;SDS011;69555;53.014;8.886;2023-09-30T13:06:00;11.43;;;2.38;;
34144;SDS011;69555;53.014;8.886;2023-09-30T13:08:26;17.42;;;3.15;;
34144;SDS011;69555;53.014;8.886;2023-09-30T13:10:51;7.43;;;2.40;;
34144;SDS011;69555;53.014;8.886;2023-09-30T13:13:17;10.15;;;1.95;;
34144;SDS011;69555;53.014;8.886;2023-09-30T13:15:43;10.07;;;1.88;;
34144;SDS011;69555;53.014;8.886;2023-09-30T13:18:08;13.73;;;2.38;;
34144;SDS011;69555;53.014;8.886;2023-09-30T13:20:34;6.00;;;1.90;;
34144;SDS011;69555;53.014;8.886;2023-09-30T13:23:01;20.13;;;3.83;;
34144;SDS011;69555;53.014;8.886;2023-09-30T13:25:28;7.47;;;2.03;;
34144;SDS011;69555;53.014;8.886;2023-09-30T13:27:54;11.85;;;2.08;;
34144;SDS011;69555;53.014;8.886;2023-09-30T13:30:21;8.05;;;2.33;;
34144;SDS011;69555;53.014;8.886;2023-09-30T13:32:49;8.43;;;2.17;;
34144;SDS011;69555;53.014;8.886;2023-09-30T13:35:16;6.05;;;1.83;;
34144;SDS011;69555;53.014;8.886;2023-09-30T13:37:42;5.75;;;1.88;;
34144;SDS011;69555;53.014;8.886;2023-09-30T13:40:09;9.98;;;2.35;;
34144;SDS011;69555;53.014;8.886;2023-09-30T13:45:06;4.72;;;1.80;;
34144;SDS011;69555;53.014;8.886;2023-09-30T13:50:02;10.57;;;2.33;;
34144;SDS011;69555;53.014;8.886;2023-09-30T13:52:30;10.23;;;2.28;;
34144;SDS011;69555;53.014;8.886;2023-09-30T13:54:57;9.68;;;2.33;;
34144;SDS011;69555;53.014;8.886;2023-09-30T13:57:22;9.30;;;2.05;;
34144;SDS011;69555;53.014;8.886;2023-09-30T13:59:48;5.45;;;1.90;;
34144;SDS011;69555;53.014;8.886;2023-09-30T14:02:14;5.50;;;2.30;;
34144;SDS011;69555;53.014;8.886;2023-09-30T14:04:39;9.55;;;1.90;;
34144;SDS011;69555;53.014;8.886;2023-09-30T14:07:05;9.38;;;1.77;;
34144;SDS011;69555;53.014;8.886;2023-09-30T14:09:31;12.73;;;2.53;;
34144;SDS011;69555;53.014;8.886;2023-09-30T14:11:57;6.40;;;1.88;;
34144;SDS011;69555;53.014;8.886;2023-09-30T14:14:23;9.00;;;3.20;;
34144;SDS011;69555;53.014;8.886;2023-09-30T14:16:49;7.53;;;1.75;;
34144;SDS011;69555;53.014;8.886;2023-09-30T14:19:14;10.02;;;2.28;;
34144;SDS011;69555;53.014;8.886;2023-09-30T14:21:40;7.18;;;2.15;;
34144;SDS011;69555;53.014;8.886;2023-09-30T14:24:06;8.68;;;1.75;;
34144;SDS011;69555;53.014;8.886;2023-09-30T14:26:32;12.88;;;2.33;;
34144;SDS011;69555;53.014;8.886;2023-09-30T14:28:58;6.20;;;2.45;;
34144;SDS011;69555;53.014;8.886;2023-09-30T14:31:23;11.63;;;2.50;;
34144;SDS011;69555;53.014;8.886;2023-09-30T14:33:49;10.48;;;2.80;;
34144;SDS011;69555;53.014;8.886;2023-09-30T14:36:15;7.90;;;1.92;;
34144;SDS011;69555;53.014;8.886;2023-09-30T14:38:42;11.90;;;3.97;;
34144;SDS011;69555;53.014;8.886;2023-09-30T14:41:08;8.68;;;2.28;;
34144;SDS011;69555;53.014;8.886;2023-09-30T14:43:34;9.75;;;2.50;;
34144;SDS011;69555;53.014;8.886;2023-09-30T14:46:02;7.00;;;2.28;;
34144;SDS011;69555;53.014;8.886;2023-09-30T14:48:28;12.57;;;2.47;;
34144;SDS011;69555;53.014;8.886;2023-09-30T14:50:54;9.25;;;2.65;;
34144;SDS011;69555;53.014;8.886;2023-09-30T14:53:20;6.07;;;2.05;;
34144;SDS011;69555;53.014;8.886;2023-09-30T14:55:45;8.82;;;2.38;;